Time;durP1;ratioP1;P1;durP2;ratioP2;P2;SDS_P1;SDS_P2;PMS_P1;PMS_P2;Temp;Humidity;BMP_temperature;BMP_pressure;BME280_temperature;BME280_humidity;BME280_pressure;Samples;Min_cycle;Max_cycle;Signal;HPM_P1;HPM_P2
2022/01/11 00:01:17;;;;;;;40.13;17.27;;;3.20;99.90;;;;;;5015094;28;20522;-71
2022/01/11 00:03:43;;;;;;;45.65;17.35;;;3.10;99.90;;;;;;5014985;28;20057;-71
2022/01/11 00:08:59;;;;;;;41.80;16.08;;;3.20;99.90;;;;;;5014140;28;20568;-72
2022/01/11 00:11:24;;;;;;;45.58;17.38;;;3.20;99.90;;;;;;5014540;28;20384;-72
2022/01/11 00:13:50;;;;;;;38.75;16.58;;;3.20;99.90;;;;;;5014802;28;20041;-72
2022/01/11 00:16:16;;;;;;;36.38;13.55;;;3.30;99.90;;;;;;5014126;28;20206;-71
2022/01/11 00:18:41;;;;;;;42.08;15.77;;;3.20;99.90;;;;;;5012468;28;20038;-72
2022/01/11 00:21:08;;;;;;;38.25;14.77;;;3.10;99.90;;;;;;5014942;28;20025;-72
2022/01/11 00:25:59;;;;;;;42.30;16.50;;;3.00;99.90;;;;;;5014649;28;20378;-71
2022/01/11 00:28:26;;;;;;;42.35;15.93;;;2.90;99.90;;;;;;5014085;28;20375;-71
2022/01/11 00:30:53;;;;;;;34.72;14.05;;;2.90;99.90;;;;;;5014437;28;20034;-71
2022/01/11 00:33:34;;;;;;;42.38;16.13;;;2.90;99.90;;;;;;5014234;28;20026;-71
2022/01/11 00:36:00;;;;;;;44.72;15.88;;;2.90;99.90;;;;;;5014727;28;20499;-72
2022/01/11 00:38:33;;;;;;;45.95;16.15;;;2.80;99.90;;;;;;5013987;28;20030;-70
2022/01/11 00:41:02;;;;;;;47.33;16.80;;;2.80;99.90;;;;;;5014597;28;20037;-72
2022/01/11 00:43:29;;;;;;;42.10;14.73;;;2.80;99.90;;;;;;5013634;28;20030;-70
2022/01/11 00:45:57;;;;;;;43.05;16.00;;;2.90;99.90;;;;;;5014125;28;20156;-70
2022/01/11 00:48:23;;;;;;;41.88;16.58;;;2.80;99.90;;;;;;5014152;28;20026;-71
2022/01/11 00:50:49;;;;;;;45.65;16.85;;;2.80;99.90;;;;;;5013646;28;20147;-72
2022/01/11 00:53:15;;;;;;;46.17;17.85;;;2.80;99.90;;;;;;5014016;28;20048;-71
2022/01/11 00:55:41;;;;;;;45.13;17.10;;;2.80;99.90;;;;;;5014044;28;20479;-71
2022/01/11 00:58:07;;;;;;;39.83;14.35;;;2.70;99.90;;;;;;5014182;28;20498;-72
2022/01/11 01:00:35;;;;;;;41.53;15.63;;;2.70;99.90;;;;;;5014187;28;20050;-72
2022/01/11 01:03:01;;;;;;;46.58;16.52;;;2.70;99.90;;;;;;5014119;28;20057;-72
2022/01/11 01:05:27;;;;;;;48.10;16.13;;;2.60;99.90;;;;;;5013791;28;20389;-72
2022/01/11 01:07:53;;;;;;;41.67;15.15;;;2.60;99.90;;;;;;5013934;28;20058;-70
2022/01/11 01:10:26;;;;;;;42.63;17.52;;;2.60;99.90;;;;;;5013792;28;20044;-70
2022/01/11 01:12:53;;;;;;;51.15;18.13;;;2.60;99.90;;;;;;5012710;28;20105;-71
2022/01/11 01:15:20;;;;;;;49.58;18.42;;;2.70;99.90;;;;;;5013617;28;20092;-71
2022/01/11 01:17:46;;;;;;;41.20;15.95;;;2.60;99.90;;;;;;5013379;28;20042;-71
2022/01/11 01:20:11;;;;;;;38.50;15.32;;;2.60;99.90;;;;;;5011933;28;20034;-71
2022/01/11 01:22:37;;;;;;;40.97;16.30;;;2.60;99.90;;;;;;5013404;28;20088;-71
2022/01/11 01:25:04;;;;;;;43.20;15.38;;;2.50;99.90;;;;;;5013743;28;20034;-70
2022/01/11 01:27:30;;;;;;;42.78;15.43;;;2.50;99.90;;;;;;5013220;28;20025;-71
2022/01/11 01:29:56;;;;;;;42.42;15.60;;;2.50;99.90;;;;;;5013325;28;20034;-72
2022/01/11 01:32:22;;;;;;;39.85;14.60;;;2.50;99.90;;;;;;5013330;28;20038;-71
2022/01/11 01:34:49;;;;;;;41.63;16.63;;;2.50;99.90;;;;;;5011696;28;20033;-71
2022/01/11 01:37:15;;;;;;;44.72;16.27;;;2.50;99.90;;;;;;5011949;28;20045;-71
2022/01/11 01:39:41;;;;;;;56.75;19.63;;;2.50;99.90;;;;;;5012951;28;20030;-71
2022/01/11 01:42:08;;;;;;;49.60;18.02;;;2.50;99.90;;;;;;5013359;28;20089;-70
2022/01/11 01:44:34;;;;;;;51.55;18.63;;;2.50;99.90;;;;;;5012698;28;20468;-71
2022/01/11 01:47:00;;;;;;;49.30;19.25;;;2.60;99.90;;;;;;5012523;28;20045;-72
2022/01/11 01:49:28;;;;;;;46.42;18.02;;;2.60;99.90;;;;;;5012972;28;20026;-72
2022/01/11 01:51:54;;;;;;;46.53;18.45;;;2.70;99.90;;;;;;5013162;28;20037;-71
2022/01/11 01:54:21;;;;;;;49.15;19.38;;;2.80;99.90;;;;;;5013143;28;20038;-72
2022/01/11 01:56:47;;;;;;;41.80;17.65;;;2.80;99.90;;;;;;5012849;28;20113;-71
2022/01/11 01:59:12;;;;;;;53.10;17.73;;;2.80;99.90;;;;;;5013153;28;20110;-72
2022/01/11 02:01:45;;;;;;;44.03;17.27;;;2.80;99.90;;;;;;5013033;28;20400;-71
2022/01/11 02:04:12;;;;;;;46.72;15.60;;;2.80;99.90;;;;;;5012720;28;20113;-71
2022/01/11 02:06:37;;;;;;;38.75;14.82;;;2.80;99.90;;;;;;5012819;28;20472;-71
2022/01/11 02:09:03;;;;;;;44.63;16.45;;;2.80;99.90;;;;;;5013340;28;20038;-71
2022/01/11 02:11:31;;;;;;;51.22;18.73;;;2.80;99.90;;;;;;5012475;28;20105;-71
2022/01/11 02:13:57;;;;;;;40.08;15.02;;;2.90;99.90;;;;;;5011537;28;20391;-71
2022/01/11 02:16:23;;;;;;;57.00;19.60;;;2.80;99.90;;;;;;5012358;28;20050;-72
2022/01/11 02:18:50;;;;;;;48.83;18.90;;;2.80;99.90;;;;;;5011452;28;20560;-72
2022/01/11 02:21:16;;;;;;;54.80;19.30;;;2.80;99.90;;;;;;5012588;28;20030;-71
2022/01/11 02:23:41;;;;;;;44.53;16.23;;;2.70;99.90;;;;;;5011291;28;20029;-71
2022/01/11 02:26:07;;;;;;;49.28;16.38;;;2.80;99.90;;;;;;5012809;28;20480;-70
2022/01/11 02:28:33;;;;;;;54.15;19.45;;;2.70;99.90;;;;;;5012925;28;20037;-71
2022/01/11 02:31:03;;;;;;;36.78;17.58;;;2.70;99.90;;;;;;5012129;28;20061;-71
2022/01/11 02:33:32;;;;;;;46.80;16.52;;;2.70;99.90;;;;;;5011949;28;20498;-72
2022/01/11 02:35:59;;;;;;;53.20;19.42;;;2.70;99.90;;;;;;5012746;28;20479;-72
2022/01/11 02:38:25;;;;;;;44.38;16.65;;;2.60;99.90;;;;;;5012755;28;20033;-71
2022/01/11 02:40:51;;;;;;;62.10;21.88;;;2.60;99.90;;;;;;5011722;28;20590;-71
2022/01/11 02:43:16;;;;;;;56.80;19.92;;;2.60;99.90;;;;;;5011525;28;20121;-72
2022/01/11 02:45:43;;;;;;;49.00;17.60;;;2.70;99.90;;;;;;5012880;28;20514;-71
2022/01/11 02:48:08;;;;;;;54.45;18.65;;;2.70;99.90;;;;;;5010911;28;20392;-70
2022/01/11 02:50:34;;;;;;;54.15;17.88;;;2.70;99.90;;;;;;5012477;28;20022;-71
2022/01/11 02:53:00;;;;;;;44.33;19.42;;;2.70;99.90;;;;;;5012371;28;20033;-72
2022/01/11 02:55:26;;;;;;;69.35;21.30;;;2.70;99.90;;;;;;5012100;28;20034;-71
2022/01/11 02:57:51;;;;;;;54.00;17.75;;;2.70;99.90;;;;;;5014993;28;20032;-72
2022/01/11 03:00:20;;;;;;;59.35;20.10;;;2.80;99.90;;;;;;5016501;28;20066;-72
2022/01/11 03:02:46;;;;;;;51.67;16.95;;;2.70;99.90;;;;;;5014784;28;20046;-72
2022/01/11 03:05:12;;;;;;;56.55;20.17;;;2.70;99.90;;;;;;5016424;28;20541;-72
2022/01/11 03:07:39;;;;;;;65.22;20.70;;;2.70;99.90;;;;;;5016069;28;20022;-72
2022/01/11 03:10:32;;;;;;;54.10;18.38;;;2.70;99.90;;;;;;5015814;28;20030;-72
2022/01/11 03:13:04;;;;;;;67.25;21.02;;;2.70;99.90;;;;;;5016145;28;20076;-72
2022/01/11 03:15:30;;;;;;;63.22;20.83;;;2.70;99.90;;;;;;5015579;28;20057;-73
2022/01/11 03:17:57;;;;;;;62.60;20.38;;;2.60;99.90;;;;;;5016019;28;20065;-72
2022/01/11 03:20:23;;;;;;;45.30;18.50;;;2.60;99.90;;;;;;5015933;28;20112;-71
2022/01/11 03:22:48;;;;;;;49.97;15.88;;;2.60;99.90;;;;;;5015904;28;20085;-72
2022/01/11 03:25:14;;;;;;;47.78;16.80;;;2.60;99.90;;;;;;5015878;28;20054;-71
2022/01/11 03:27:40;;;;;;;57.50;20.13;;;2.60;99.90;;;;;;5014604;28;20037;-72
2022/01/11 03:30:07;;;;;;;60.72;20.50;;;2.60;99.90;;;;;;5015836;28;20032;-72
2022/01/11 03:32:32;;;;;;;45.05;16.10;;;2.60;99.90;;;;;;5015250;28;20053;-71
2022/01/11 03:34:58;;;;;;;62.97;22.42;;;2.60;99.90;;;;;;5015175;28;20088;-72
2022/01/11 03:37:24;;;;;;;63.72;20.45;;;2.60;99.90;;;;;;5015711;28;20042;-72
2022/01/11 03:39:49;;;;;;;54.58;18.55;;;2.60;99.90;;;;;;5015403;28;20056;-72
2022/01/11 03:42:15;;;;;;;77.65;21.27;;;2.60;99.90;;;;;;5015411;28;20037;-71
2022/01/11 03:44:41;;;;;;;55.40;19.85;;;2.60;99.90;;;;;;5013957;28;20037;-71
2022/01/11 03:47:07;;;;;;;69.43;22.55;;;2.60;99.90;;;;;;5015418;28;20108;-71
2022/01/11 03:49:33;;;;;;;41.83;16.40;;;2.60;99.90;;;;;;5015569;28;20105;-72
2022/01/11 03:51:58;;;;;;;67.07;22.67;;;2.70;99.90;;;;;;5015588;28;20033;-72
2022/01/11 03:54:28;;;;;;;70.82;23.83;;;2.60;99.90;;;;;;5015016;28;20498;-72
2022/01/11 03:56:54;;;;;;;69.80;23.95;;;2.70;99.90;;;;;;5014683;28;20104;-72
2022/01/11 03:59:20;;;;;;;52.42;20.55;;;2.70;99.90;;;;;;5015341;28;20038;-72
2022/01/11 04:01:46;;;;;;;51.75;17.23;;;2.70;99.90;;;;;;5015210;28;20026;-71
2022/01/11 04:04:12;;;;;;;61.47;21.02;;;2.70;99.90;;;;;;5015116;28;20383;-71
2022/01/11 04:06:38;;;;;;;54.90;18.20;;;2.70;99.90;;;;;;5015319;28;20030;-72
2022/01/11 04:09:06;;;;;;;82.80;24.27;;;2.80;99.90;;;;;;5013506;28;20471;-71
2022/01/11 04:11:33;;;;;;;63.25;23.10;;;2.80;99.90;;;;;;5015122;28;20026;-72
2022/01/11 04:13:59;;;;;;;59.90;20.85;;;2.80;99.90;;;;;;5014975;28;20030;-72
2022/01/11 04:16:25;;;;;;;72.63;24.50;;;2.80;99.90;;;;;;5014497;28;20509;-72
2022/01/11 04:18:50;;;;;;;86.35;26.70;;;2.80;99.90;;;;;;5014976;28;20088;-72
2022/01/11 04:21:16;;;;;;;68.75;22.25;;;2.90;99.90;;;;;;5013311;28;20712;-72
2022/01/11 04:23:42;;;;;;;66.47;21.25;;;2.90;99.90;;;;;;5014024;28;20117;-70
2022/01/11 04:26:07;;;;;;;62.40;20.65;;;2.90;99.90;;;;;;5014505;28;20101;-72
2022/01/11 04:28:33;;;;;;;77.55;24.58;;;2.90;99.90;;;;;;5014766;28;20026;-72
2022/01/11 04:31:00;;;;;;;111.65;27.58;;;2.90;99.90;;;;;;5014643;28;20444;-72
2022/01/11 04:33:31;;;;;;;76.05;25.75;;;2.90;99.90;;;;;;5014409;28;20113;-72
2022/01/11 04:35:58;;;;;;;69.03;23.15;;;3.00;99.90;;;;;;5014030;28;20041;-71
2022/01/11 04:38:27;;;;;;;71.28;23.80;;;3.00;99.90;;;;;;5014185;28;20447;-72
2022/01/11 04:40:53;;;;;;;73.95;25.15;;;3.00;99.90;;;;;;5013032;28;20552;-72
2022/01/11 04:43:19;;;;;;;57.53;22.45;;;3.00;99.90;;;;;;5012454;28;20030;-72
2022/01/11 04:45:47;;;;;;;63.67;22.17;;;3.10;99.90;;;;;;5004515;28;20470;-73
2022/01/11 04:48:14;;;;;;;66.35;23.83;;;3.00;99.90;;;;;;5014590;28;20018;-72
2022/01/11 04:50:41;;;;;;;70.28;23.65;;;3.00;99.90;;;;;;5014316;28;20030;-72
2022/01/11 04:53:06;;;;;;;62.60;22.40;;;2.90;99.90;;;;;;5014238;28;20403;-72
2022/01/11 04:55:32;;;;;;;74.75;24.25;;;2.90;99.90;;;;;;5014163;28;20036;-72
2022/01/11 04:57:58;;;;;;;94.45;25.20;;;2.90;99.90;;;;;;5012798;28;20452;-71
2022/01/11 05:00:25;;;;;;;51.95;18.98;;;2.90;99.90;;;;;;5014242;28;20467;-71
2022/01/11 05:02:51;;;;;;;85.70;27.85;;;2.90;99.90;;;;;;5013912;28;20022;-72
2022/01/11 05:05:16;;;;;;;64.63;22.08;;;2.90;99.90;;;;;;5013849;28;20033;-72
2022/01/11 05:07:44;;;;;;;73.43;25.67;;;2.90;99.90;;;;;;5013972;28;20057;-72
2022/01/11 05:10:10;;;;;;;61.65;22.02;;;2.90;99.90;;;;;;5013857;28;20037;-72
2022/01/11 05:12:38;;;;;;;72.68;26.10;;;2.90;99.90;;;;;;5014083;28;20028;-71
2022/01/11 05:15:09;;;;;;;60.67;20.23;;;2.90;99.90;;;;;;5012407;28;20506;-71
2022/01/11 05:17:35;;;;;;;75.35;23.67;;;2.90;99.90;;;;;;5012377;28;20041;-72
2022/01/11 05:20:01;;;;;;;65.65;24.98;;;2.90;99.90;;;;;;5013645;28;20026;-71
2022/01/11 05:22:26;;;;;;;65.32;22.23;;;2.90;99.90;;;;;;5013556;28;20029;-72
2022/01/11 05:24:52;;;;;;;50.72;17.85;;;3.00;99.90;;;;;;5012389;28;20096;-71
2022/01/11 05:27:17;;;;;;;67.07;24.25;;;2.90;99.90;;;;;;5013380;28;20036;-71
2022/01/11 05:29:43;;;;;;;66.25;22.88;;;2.90;99.90;;;;;;5011990;28;20022;-72
2022/01/11 05:32:09;;;;;;;70.38;23.10;;;2.80;99.90;;;;;;5013572;28;20116;-71
2022/01/11 05:34:34;;;;;;;47.33;16.65;;;2.80;99.90;;;;;;5013142;28;20018;-72
2022/01/11 05:37:00;;;;;;;72.85;25.48;;;2.70;99.90;;;;;;5013236;28;20472;-72
2022/01/11 05:39:25;;;;;;;67.72;21.27;;;2.80;99.90;;;;;;5013465;28;20018;-71
2022/01/11 05:41:51;;;;;;;51.92;20.75;;;2.80;99.90;;;;;;5013370;28;20026;-72
2022/01/11 05:44:17;;;;;;;42.30;17.65;;;2.80;99.90;;;;;;5013379;28;20452;-72
2022/01/11 05:46:43;;;;;;;48.85;19.35;;;2.70;99.90;;;;;;5012832;28;20037;-72
2022/01/11 05:49:08;;;;;;;64.97;23.17;;;2.70;99.90;;;;;;5013156;28;20385;-73
2022/01/11 05:51:34;;;;;;;54.25;18.70;;;2.70;99.90;;;;;;5013143;28;20056;-71
2022/01/11 05:54:00;;;;;;;56.45;22.02;;;2.70;99.90;;;;;;5013004;28;20026;-72
2022/01/11 05:56:25;;;;;;;54.58;20.33;;;2.70;99.90;;;;;;5013245;28;20045;-71
2022/01/11 05:58:52;;;;;;;62.38;24.85;;;2.70;99.90;;;;;;5013094;28;20026;-71
2022/01/11 06:01:18;;;;;;;58.20;20.00;;;2.70;99.90;;;;;;5013298;28;20483;-72
2022/01/11 06:03:44;;;;;;;58.85;21.60;;;2.70;99.90;;;;;;5013294;28;20423;-72
2022/01/11 06:06:09;;;;;;;55.70;20.92;;;2.70;99.90;;;;;;5013213;28;20026;-72
2022/01/11 06:08:35;;;;;;;57.88;19.75;;;2.70;99.90;;;;;;5012923;28;20492;-72
2022/01/11 06:11:01;;;;;;;52.40;19.85;;;2.60;99.90;;;;;;5011571;28;20025;-71
2022/01/11 06:13:26;;;;;;;64.80;23.73;;;2.60;99.90;;;;;;5013118;28;20176;-71
2022/01/11 06:15:52;;;;;;;64.00;23.35;;;2.60;99.90;;;;;;5011104;28;20046;-72
2022/01/11 06:18:18;;;;;;;70.95;24.23;;;2.60;99.90;;;;;;5012711;28;20044;-72
2022/01/11 06:20:44;;;;;;;64.20;23.13;;;2.70;99.90;;;;;;5013030;28;20030;-73
2022/01/11 06:23:10;;;;;;;48.00;17.67;;;2.70;99.90;;;;;;5012987;28;20408;-72
2022/01/11 06:25:37;;;;;;;59.13;20.55;;;2.70;99.90;;;;;;5013252;28;20034;-71
2022/01/11 06:28:03;;;;;;;57.92;20.20;;;2.70;99.90;;;;;;5011713;28;20026;-73
2022/01/11 06:30:29;;;;;;;62.35;23.23;;;2.70;99.90;;;;;;5012308;28;20065;-71
2022/01/11 06:32:56;;;;;;;75.18;24.48;;;2.70;99.90;;;;;;5011327;28;20034;-72
2022/01/11 06:35:22;;;;;;;58.95;21.20;;;2.70;99.90;;;;;;5012111;28;20025;-71
2022/01/11 06:37:48;;;;;;;59.65;22.95;;;2.80;99.90;;;;;;5012638;28;20080;-73
2022/01/11 06:40:17;;;;;;;53.38;18.20;;;2.80;99.90;;;;;;5012835;28;20058;-72
2022/01/11 06:42:47;;;;;;;69.75;23.23;;;2.80;99.90;;;;;;5012216;28;20045;-72
2022/01/11 06:45:14;;;;;;;75.13;23.52;;;2.80;99.90;;;;;;4997291;28;20114;-73
2022/01/11 06:47:40;;;;;;;75.97;26.45;;;2.90;99.90;;;;;;4993174;28;20076;-75
2022/01/11 06:50:07;;;;;;;56.22;19.63;;;2.90;99.90;;;;;;5009372;28;20026;-74
2022/01/11 06:52:32;;;;;;;66.65;23.42;;;3.00;99.90;;;;;;5012737;28;20106;-73
2022/01/11 06:54:58;;;;;;;51.42;20.65;;;3.00;99.90;;;;;;5012485;28;20116;-72
2022/01/11 06:57:24;;;;;;;64.78;23.38;;;2.90;99.90;;;;;;5010829;28;20045;-72
2022/01/11 06:59:50;;;;;;;44.88;18.27;;;2.90;99.90;;;;;;5012138;28;20393;-72
2022/01/11 07:02:15;;;;;;;64.18;22.20;;;3.00;99.90;;;;;;5011215;28;20036;-74
2022/01/11 07:04:41;;;;;;;63.63;23.10;;;2.90;99.90;;;;;;5012495;28;20040;-71
2022/01/11 07:07:07;;;;;;;63.40;24.00;;;2.90;99.90;;;;;;5011041;28;20030;-74
2022/01/11 07:09:34;;;;;;;57.17;19.90;;;2.90;99.90;;;;;;5012590;28;20033;-73
2022/01/11 07:11:59;;;;;;;54.67;20.92;;;2.90;99.90;;;;;;5012088;28;20038;-75
2022/01/11 07:14:25;;;;;;;59.58;23.15;;;2.90;99.90;;;;;;5012208;28;20068;-73
2022/01/11 07:16:51;;;;;;;57.53;20.60;;;2.90;99.90;;;;;;5012632;28;20365;-71
2022/01/11 07:19:17;;;;;;;59.35;23.70;;;2.90;99.90;;;;;;5012612;28;20030;-71
2022/01/11 07:21:46;;;;;;;56.13;21.65;;;3.00;99.90;;;;;;5012259;28;20117;-74
2022/01/11 07:24:13;;;;;;;73.57;24.85;;;3.00;99.90;;;;;;5012244;28;20103;-71
2022/01/11 07:26:40;;;;;;;55.38;22.30;;;3.00;99.90;;;;;;5012357;28;20069;-71
2022/01/11 07:29:07;;;;;;;54.60;20.33;;;3.00;99.90;;;;;;5011802;28;20030;-72
2022/01/11 07:31:37;;;;;;;48.15;17.65;;;3.00;99.90;;;;;;5012248;28;20084;-72
2022/01/11 07:34:06;;;;;;;42.33;19.75;;;2.90;99.90;;;;;;5012372;28;20494;-71
2022/01/11 07:36:32;;;;;;;53.97;20.08;;;2.90;99.90;;;;;;5012316;28;20369;-74
2022/01/11 07:38:58;;;;;;;52.97;20.75;;;2.90;99.90;;;;;;5010686;28;20088;-72
2022/01/11 07:41:24;;;;;;;52.55;20.38;;;2.90;99.90;;;;;;5011690;28;20026;-73
2022/01/11 07:43:51;;;;;;;56.70;19.20;;;3.00;99.90;;;;;;5007296;28;20034;-73
2022/01/11 07:46:17;;;;;;;56.97;21.23;;;3.00;99.90;;;;;;5014775;28;20026;-75
2022/01/11 07:48:42;;;;;;;48.92;18.92;;;3.00;99.90;;;;;;5015182;28;20379;-72
2022/01/11 07:51:08;;;;;;;48.92;18.73;;;3.00;99.90;;;;;;5015426;28;20018;-71
2022/01/11 07:53:34;;;;;;;37.65;16.10;;;3.10;99.90;;;;;;5015424;28;20023;-74
2022/01/11 07:56:00;;;;;;;43.83;16.70;;;3.10;99.90;;;;;;5015389;28;20077;-76
2022/01/11 07:58:25;;;;;;;47.58;19.33;;;3.00;99.90;;;;;;5013337;28;20029;-71
2022/01/11 08:00:52;;;;;;;40.72;15.45;;;3.00;99.90;;;;;;5013012;28;20036;-73
2022/01/11 08:03:17;;;;;;;42.35;18.63;;;2.90;99.90;;;;;;4995529;28;20522;-74
2022/01/11 08:05:43;;;;;;;45.35;16.50;;;2.90;99.90;;;;;;4995526;28;20034;-75
2022/01/11 08:08:09;;;;;;;50.22;19.00;;;2.80;99.90;;;;;;4995635;28;20057;-71
2022/01/11 08:10:35;;;;;;;40.75;15.00;;;2.80;99.90;;;;;;4995015;28;20048;-71
2022/01/11 08:13:05;;;;;;;42.45;13.80;;;2.70;99.90;;;;;;5006027;28;20029;-72
2022/01/11 08:15:32;;;;;;;46.67;18.90;;;2.70;99.90;;;;;;5000691;28;20050;-72
2022/01/11 08:17:58;;;;;;;47.15;17.98;;;2.60;99.90;;;;;;5013668;28;20065;-76
2022/01/11 08:20:24;;;;;;;43.67;17.42;;;2.60;99.90;;;;;;5009087;28;20034;-72
2022/01/11 08:22:51;;;;;;;41.78;15.60;;;2.60;99.90;;;;;;4997371;28;20027;-73
2022/01/11 08:25:17;;;;;;;41.25;16.83;;;2.50;99.90;;;;;;4996692;28;20015;-75
2022/01/11 08:27:42;;;;;;;40.38;14.77;;;2.50;99.90;;;;;;5012711;28;20033;-73
2022/01/11 08:30:09;;;;;;;42.67;15.65;;;2.50;99.90;;;;;;5003834;28;20033;-75
2022/01/11 08:32:35;;;;;;;45.65;17.48;;;2.40;99.90;;;;;;5007278;28;20076;-71
2022/01/11 08:35:00;;;;;;;46.80;17.88;;;2.50;99.90;;;;;;4996741;28;20038;-72
2022/01/11 08:37:26;;;;;;;44.25;17.55;;;2.50;99.90;;;;;;5006622;28;20039;-75
2022/01/11 08:39:53;;;;;;;40.50;15.98;;;2.50;99.90;;;;;;5002281;28;20037;-74
2022/01/11 08:42:19;;;;;;;40.45;16.63;;;2.50;99.90;;;;;;5002222;28;20025;-74
2022/01/11 08:44:47;;;;;;;45.10;18.02;;;2.40;99.90;;;;;;5001045;28;20164;-72
2022/01/11 08:47:18;;;;;;;38.70;14.88;;;2.40;99.90;;;;;;4996699;28;20091;-74
2022/01/11 08:49:44;;;;;;;34.45;14.45;;;2.40;99.90;;;;;;4994843;28;20073;-75
2022/01/11 08:52:10;;;;;;;34.72;14.93;;;2.40;99.90;;;;;;5000959;28;20029;-73
2022/01/11 08:54:36;;;;;;;38.28;15.45;;;2.40;99.90;;;;;;5010859;28;20176;-72
2022/01/11 08:57:02;;;;;;;48.72;17.00;;;2.40;99.90;;;;;;4997430;28;20539;-73
2022/01/11 08:59:28;;;;;;;47.35;17.98;;;2.40;99.90;;;;;;5008404;28;20049;-74
2022/01/11 09:01:59;;;;;;;43.10;17.50;;;2.40;99.90;;;;;;4993311;28;20023;-71
2022/01/11 09:04:26;;;;;;;36.05;14.60;;;2.30;99.90;;;;;;5025941;28;20030;-74
2022/01/11 09:06:57;;;;;;;42.67;16.52;;;2.40;99.90;;;;;;4993895;28;20034;-74
2022/01/11 09:09:24;;;;;;;38.20;13.85;;;2.30;99.90;;;;;;4994027;28;20034;-72
2022/01/11 09:11:51;;;;;;;36.63;14.38;;;2.30;99.90;;;;;;5006955;28;20034;-74
2022/01/11 09:14:17;;;;;;;36.85;13.48;;;2.30;99.90;;;;;;4993059;28;20387;-72
2022/01/11 09:16:43;;;;;;;24.27;10.23;;;2.30;99.90;;;;;;4994316;28;20141;-72
2022/01/11 09:19:09;;;;;;;41.47;17.38;;;2.30;99.90;;;;;;4993856;28;20445;-71
2022/01/11 09:21:35;;;;;;;35.17;15.05;;;2.20;99.90;;;;;;4994167;28;20457;-72
2022/01/11 09:24:01;;;;;;;28.23;12.25;;;2.20;99.90;;;;;;4997268;28;20026;-73
2022/01/11 09:26:26;;;;;;;37.67;13.98;;;2.20;99.90;;;;;;5001677;28;20468;-72
2022/01/11 09:28:52;;;;;;;40.80;16.75;;;2.20;99.90;;;;;;4999711;28;20045;-74
2022/01/11 09:31:18;;;;;;;27.65;11.27;;;2.20;99.90;;;;;;4993625;28;20034;-74
2022/01/11 09:33:43;;;;;;;34.33;14.00;;;2.20;99.90;;;;;;4999239;28;20029;-73
2022/01/11 09:36:09;;;;;;;35.22;13.73;;;2.20;99.90;;;;;;5004487;28;20038;-74
2022/01/11 09:38:35;;;;;;;27.27;10.73;;;2.20;99.90;;;;;;4996661;28;20503;-70
2022/01/11 09:41:01;;;;;;;32.03;13.23;;;2.20;99.90;;;;;;4993669;28;20460;-71
2022/01/11 09:43:28;;;;;;;33.13;14.45;;;2.30;99.90;;;;;;4993590;28;20474;-75
2022/01/11 09:45:55;;;;;;;35.63;14.43;;;2.30;99.90;;;;;;4996961;28;20060;-73
2022/01/11 09:48:25;;;;;;;35.78;15.10;;;2.40;99.90;;;;;;5011526;28;20169;-72
2022/01/11 09:50:51;;;;;;;35.47;13.13;;;2.50;99.90;;;;;;5011876;28;20033;-73
2022/01/11 09:53:16;;;;;;;36.22;13.52;;;2.60;99.90;;;;;;5012567;28;20026;-73
2022/01/11 09:55:44;;;;;;;32.40;14.52;;;2.70;99.90;;;;;;5012966;28;20026;-72
2022/01/11 09:58:11;;;;;;;30.83;13.13;;;2.80;99.90;;;;;;5012801;28;20033;-72
2022/01/11 10:00:37;;;;;;;29.15;11.95;;;3.00;99.90;;;;;;5012802;28;20041;-75
2022/01/11 10:03:04;;;;;;;24.67;9.82;;;3.10;99.90;;;;;;5012330;28;20026;-74
2022/01/11 10:05:31;;;;;;;25.17;9.18;;;3.20;99.90;;;;;;5012233;28;20030;-74
2022/01/11 10:07:56;;;;;;;28.40;12.82;;;3.40;99.90;;;;;;5006354;28;20030;-72
2022/01/11 10:10:26;;;;;;;30.15;14.38;;;3.80;99.90;;;;;;5011159;28;20365;-73
2022/01/11 10:12:55;;;;;;;29.40;12.32;;;4.10;99.90;;;;;;5008941;28;20117;-73
2022/01/11 10:15:30;;;;;;;24.45;10.23;;;4.70;99.90;;;;;;4991899;28;20069;-72
2022/01/11 10:17:56;;;;;;;26.77;11.20;;;5.10;99.90;;;;;;4992939;28;20038;-76
2022/01/11 10:20:24;;;;;;;26.05;10.00;;;5.30;99.90;;;;;;4992617;28;20097;-73
2022/01/11 10:22:54;;;;;;;25.10;11.93;;;5.40;99.90;;;;;;5010996;28;20053;-74
2022/01/11 10:25:20;;;;;;;30.90;13.15;;;5.30;99.90;;;;;;5012473;28;20428;-72
2022/01/11 10:27:56;;;;;;;18.83;8.45;;;5.20;99.90;;;;;;5012288;28;20030;-75
2022/01/11 10:30:23;;;;;;;27.52;11.02;;;5.00;99.90;;;;;;5012617;28;20041;-72
2022/01/11 10:32:50;;;;;;;30.40;11.05;;;4.90;99.90;;;;;;5012308;28;20464;-72
2022/01/11 10:35:19;;;;;;;24.55;10.50;;;5.20;99.90;;;;;;5012518;28;20383;-74
2022/01/11 10:37:48;;;;;;;25.52;11.30;;;5.60;99.90;;;;;;5011860;28;20038;-72
2022/01/11 10:40:34;;;;;;;22.13;8.77;;;6.00;99.90;;;;;;5011878;28;20065;-73
2022/01/11 10:43:04;;;;;;;19.00;6.97;;;6.50;99.90;;;;;;5012184;28;20476;-72
2022/01/11 10:45:51;;;;;;;26.27;9.68;;;6.90;99.90;;;;;;5012048;28;20152;-72
2022/01/11 10:48:23;;;;;;;22.83;9.40;;;7.20;99.90;;;;;;5010617;28;20036;-75
2022/01/11 10:50:52;;;;;;;19.63;7.70;;;7.30;99.90;;;;;;5010503;28;20427;-74
2022/01/11 10:53:28;;;;;;;27.00;10.35;;;7.20;99.90;;;;;;5011518;28;20419;-74
2022/01/11 10:55:59;;;;;;;25.83;11.00;;;7.40;99.90;;;;;;5011702;28;20037;-73
2022/01/11 10:58:28;;;;;;;23.87;9.17;;;7.50;99.90;;;;;;5011624;28;20025;-73
2022/01/11 11:00:55;;;;;;;27.88;12.13;;;7.30;99.90;;;;;;5011818;28;20030;-73
2022/01/11 11:03:23;;;;;;;23.60;10.15;;;7.20;99.90;;;;;;5011990;28;20034;-75
2022/01/11 11:05:52;;;;;;;23.85;10.77;;;7.20;99.90;;;;;;5010382;28;20022;-71
2022/01/11 11:08:20;;;;;;;23.95;10.23;;;7.10;99.90;;;;;;5011645;28;20026;-72
2022/01/11 11:10:49;;;;;;;24.55;10.55;;;6.90;99.90;;;;;;5012135;28;20459;-73
2022/01/11 11:13:28;;;;;;;21.05;8.65;;;7.00;99.90;;;;;;5011821;28;20030;-76
2022/01/11 11:15:59;;;;;;;20.00;8.75;;;7.10;99.90;;;;;;4990457;28;20085;-75
2022/01/11 11:18:29;;;;;;;19.85;8.65;;;7.40;99.90;;;;;;5006149;28;20468;-75
2022/01/11 11:20:56;;;;;;;26.00;10.45;;;7.60;99.90;;;;;;5015319;28;20034;-76
2022/01/11 11:23:22;;;;;;;23.35;9.85;;;7.80;99.90;;;;;;5015590;28;20030;-74
2022/01/11 11:25:48;;;;;;;22.55;9.02;;;7.80;99.90;;;;;;5016177;28;20474;-73
2022/01/11 11:28:14;;;;;;;21.83;9.18;;;7.60;99.90;;;;;;5014473;28;20172;-75
2022/01/11 11:30:41;;;;;;;22.13;9.73;;;7.50;99.90;;;;;;5014840;28;20030;-71
2022/01/11 11:33:07;;;;;;;27.42;11.30;;;7.40;99.90;;;;;;5015620;28;20033;-75
2022/01/11 11:35:33;;;;;;;24.98;10.77;;;7.50;99.90;;;;;;5015214;28;20026;-72
2022/01/11 11:38:07;;;;;;;22.83;8.75;;;7.50;99.90;;;;;;5014937;28;20073;-72
2022/01/11 11:40:34;;;;;;;22.13;8.30;;;7.50;99.90;;;;;;5015309;28;20048;-75
2022/01/11 11:43:02;;;;;;;22.88;10.05;;;7.30;99.90;;;;;;5014726;28;20117;-73
2022/01/11 11:45:36;;;;;;;28.38;9.38;;;7.10;99.90;;;;;;5015193;28;20036;-72
2022/01/11 11:48:09;;;;;;;23.95;10.68;;;6.90;99.90;;;;;;5014299;28;20029;-71
2022/01/11 11:50:48;;;;;;;23.35;9.40;;;6.90;99.90;;;;;;5015277;28;20022;-72
2022/01/11 11:53:30;;;;;;;23.65;10.15;;;6.80;99.90;;;;;;5015149;28;20033;-72
2022/01/11 11:56:15;;;;;;;25.20;10.65;;;6.70;99.90;;;;;;5014788;28;20065;-74
2022/01/11 11:58:46;;;;;;;24.02;9.85;;;6.60;99.90;;;;;;5015179;28;20061;-73
2022/01/11 12:01:31;;;;;;;28.37;11.50;;;6.70;99.90;;;;;;5015181;28;20152;-74
2022/01/11 12:03:57;;;;;;;23.60;9.65;;;6.80;99.90;;;;;;5014789;28;20479;-71
2022/01/11 12:06:28;;;;;;;26.48;10.65;;;6.90;99.90;;;;;;5014745;28;20096;-71
2022/01/11 12:09:08;;;;;;;23.95;9.70;;;6.80;99.90;;;;;;5014894;28;20037;-72
2022/01/11 12:11:42;;;;;;;26.05;10.68;;;6.70;99.90;;;;;;5014764;28;20026;-71
2022/01/11 12:14:27;;;;;;;23.35;10.77;;;6.70;99.90;;;;;;5014734;28;20212;-73
2022/01/11 12:16:52;;;;;;;22.08;9.00;;;6.80;99.90;;;;;;5014553;28;20038;-74
2022/01/11 12:19:40;;;;;;;23.63;9.60;;;6.70;99.90;;;;;;5014570;28;20514;-74
2022/01/11 12:22:08;;;;;;;26.88;10.07;;;6.70;99.90;;;;;;5014658;28;20068;-72
2022/01/11 12:24:34;;;;;;;25.08;9.55;;;6.80;99.90;;;;;;5013211;28;20092;-74
2022/01/11 12:27:00;;;;;;;26.42;9.77;;;6.80;99.90;;;;;;5014429;28;20468;-74
2022/01/11 12:29:27;;;;;;;27.33;10.93;;;6.80;99.90;;;;;;5014018;28;20038;-73
2022/01/11 12:31:57;;;;;;;23.05;9.95;;;6.80;99.90;;;;;;5014002;28;20085;-75
2022/01/11 12:34:46;;;;;;;26.98;10.43;;;6.90;99.90;;;;;;5014198;28;20080;-72
2022/01/11 12:37:34;;;;;;;25.10;9.43;;;7.00;99.90;;;;;;4988441;28;20456;-73
2022/01/11 12:40:02;;;;;;;25.15;9.70;;;7.00;99.90;;;;;;4994819;28;20460;-75
2022/01/11 12:42:28;;;;;;;23.50;9.70;;;7.20;99.90;;;;;;4994685;28;20023;-75
2022/01/11 12:47:22;;;;;;;24.77;9.88;;;7.60;99.90;;;;;;5014134;28;20034;-71